Aeroporto :
LOGIN :

Iscrizione | Disclaimer

   EN    FR    IT 

 










Sommario :    VFR   VFR Marginale   IFR   IFR Intensivo   IFR Molto Intensivo
Visibilità : 
Base nubi : 
>= 8 km
>= 3000ft
5 / 8 km
1000 / 3000 ft
1500m / 5 km
500 / 1000 ft
800 / 1500m
200 / 500 ft
< 800m
< 200 ft
Simboli :   Temporali  Nebbia  Neve Forte  Precipitazioni Forti  Vento > 20 kt
SIGMETs :   Varie  Temporali  Ghiacco  Turbolenza  Onda orograficha  Ceneri Vulcaniche






- Altitudine del aeroporto : 72 ft
- Codice IATA : UDE


EHVK - Volkel Airbase

ULTIMO METAR :
  • 300955Z AUTO 21008KT 140V250 9999 NCD 14/09 Q1010 BLU NOSIG

METARs OBSOLETI :
  • 300925Z AUTO 20007KT 150V220 9999 NCD 13/09 Q1010 BLU NOSIG
  • 300855Z AUTO 19005KT 140V210 9999 NCD 11/09 Q1010 BLU NOSIG
  • 300829Z AUTO 21005KT 150V220 9999 NCD 10/08 Q1010 BLU NOSIG
  • 300755Z AUTO 21005KT 160V240 9000 BR NCD 09/07 Q1010 BLU BECMG 9999 NSC
  • 300725Z AUTO 20004KT 9000 BR NCD 07/07 Q1010 BLU BECMG 9999 NSC
  • 300708Z AUTO 21004KT 160V230 9000 BR NCD 06/06 Q1010 BLU BECMG 9999 NSC

TAF TAF EHVK
Valido dal 30 a 09 ore il 30 a 21 ore UTC


300823Z 3009/3021 21005KT CAVOK
TEMPO 3009/3011 SCT018
BECMG 3012/3014 20010G20KT



MetMap, La meteo Aeronautica in un colpo d'occhio ! - Copyright ORBIFLY Dicembre 2007 - Disclaimer

ORBIFLY MET'MAP TEAM :

Programmazione e sviluppo : Alexandra Zaïnal
Concezione : Baudouin d'Aumeries
Supporto tecnico e logistico : Manuel Goepfert
Aiuto : Marc-Olivier Méhu
Aiuto per la traduzione : Arnaldo La Scala




FONTI E CREDITI :

   NOAA